Buoy 43541

sailwx.info

Track history (hours):
 
Tides and Currents Weather Stations Pressure Air Temp Water Temp Dewpoint Dewpoint Depression Visibility Wind Speed Wind Dir Waves Ship Positions

Drifting buoy 43541

Last reported at 2017-Nov-02 20:00 UTC. Time now 2017-Nov-18 15:30 UTC.
Position N 29°49' W 141°38'.
Warning: this ship's position is 15 days out of date.

Water temperature 22.6 ° C

Date/timePositionNaut miles runAvg speedWind from/ knotsBaromVisibWave heightAir tempDewpointWater temp
2017-Nov-02 20:00N 29°49' W 141°38'1 0.6 22.6
2017-Nov-02 19:00N 29°50' W 141°38'0 0.0 22.6
2017-Nov-02 18:00N 29°50' W 141°38'0 0.0 22.5
2017-Nov-02 17:00N 29°50' W 141°38'0 0.0 22.5
2017-Nov-02 16:00N 29°50' W 141°38'1 0.6 22.5
2017-Nov-02 15:00N 29°49' W 141°38'0 0.0 22.5
2017-Nov-02 14:00N 29°49' W 141°38'1 0.5 22.5
2017-Nov-02 13:00N 29°49' W 141°38'0 0.0 22.5
2017-Nov-02 12:00N 29°49' W 141°38'2 0.4 22.5
2017-Nov-02 06:00N 29°47' W 141°39'0 0.0 22.7
2017-Nov-02 05:00N 29°47' W 141°39'1 0.6 22.8
2017-Nov-02 03:00N 29°46' W 141°38'0 0.0 22.8
2017-Nov-02 02:00N 29°46' W 141°38'0 0.0 22.9
2017-Nov-02 01:00N 29°46' W 141°38'1 0.8 23.0
2017-Nov-02 00:00N 29°47' W 141°38'0 0.0 22.8
2017-Nov-01 23:00N 29°47' W 141°38'1 0.1 22.8
2017-Nov-01 19:00N 29°47' W 141°39'1 0.5 23.0
2017-Nov-01 18:00N 29°47' W 141°40'0 0.0 22.6
2017-Nov-01 17:00N 29°47' W 141°40'1 0.6 22.5
2017-Nov-01 16:00N 29°46' W 141°40'1 0.8 22.5
2017-Nov-01 15:00N 29°46' W 141°40'0 0.0 22.5
2017-Nov-01 14:00N 29°46' W 141°40'0 0.0 22.5
2017-Nov-01 12:00N 29°46' W 141°40'1 0.3 22.5
2017-Nov-01 08:00N 29°44' W 141°41'0 0.0 22.5
2017-Nov-01 07:00N 29°44' W 141°41'0 0.0 22.5
2017-Nov-01 06:00N 29°44' W 141°41'1 0.8 22.5
2017-Nov-01 05:00N 29°44' W 141°41'0 0.0 22.5
2017-Nov-01 04:00N 29°44' W 141°41'1 0.8 22.5
2017-Nov-01 03:00N 29°44' W 141°42'0 0.0 22.5
2017-Nov-01 02:00N 29°44' W 141°42'0 0.0 22.5
2017-Nov-01 00:00N 29°44' W 141°42'0 0.0 22.6
2017-Oct-31 23:00N 29°44' W 141°42'3 1.0 22.6
2017-Oct-31 20:00N 29°43' W 141°45'0 0.0 22.4
2017-Oct-31 18:00N 29°43' W 141°45'1 1.3 22.6
2017-Oct-31 17:00N 29°42' W 141°46'1 0.5 22.6
2017-Oct-31 16:00N 29°42' W 141°45'0 0.0 22.6
2017-Oct-31 15:00N 29°42' W 141°45'1 0.8 22.6
2017-Oct-31 14:00N 29°41' W 141°46'0 0.0 22.6
2017-Oct-31 13:00N 29°41' W 141°46'   22.6
Track history (hours):
 
Tides and Currents Weather Stations Pressure Air Temp Water Temp Dewpoint Dewpoint Depression Visibility Wind Speed Wind Dir Waves Ship Positions

Drifting buoy 43541

Last reported at 2017-Nov-02 20:00 UTC. Time now 2017-Nov-18 15:30 UTC.
Position N 29°49' W 141°38'.
Warning: this ship's position is 15 days out of date.

Water temperature 22.6 ° C

Date/timePositionNaut miles runAvg speedWind from/ knotsBaromVisibWave heightAir tempDewpointWater temp
2017-Nov-02 20:00N 29°49' W 141°38'1 0.6 22.6
2017-Nov-02 19:00N 29°50' W 141°38'0 0.0 22.6
2017-Nov-02 18:00N 29°50' W 141°38'0 0.0 22.5
2017-Nov-02 17:00N 29°50' W 141°38'0 0.0 22.5
2017-Nov-02 16:00N 29°50' W 141°38'1 0.6 22.5
2017-Nov-02 15:00N 29°49' W 141°38'0 0.0 22.5
2017-Nov-02 14:00N 29°49' W 141°38'1 0.5 22.5
2017-Nov-02 13:00N 29°49' W 141°38'0 0.0 22.5
2017-Nov-02 12:00N 29°49' W 141°38'2 0.4 22.5
2017-Nov-02 06:00N 29°47' W 141°39'0 0.0 22.7
2017-Nov-02 05:00N 29°47' W 141°39'1 0.6 22.8
2017-Nov-02 03:00N 29°46' W 141°38'0 0.0 22.8
2017-Nov-02 02:00N 29°46' W 141°38'0 0.0 22.9
2017-Nov-02 01:00N 29°46' W 141°38'1 0.8 23.0
2017-Nov-02 00:00N 29°47' W 141°38'0 0.0 22.8
2017-Nov-01 23:00N 29°47' W 141°38'1 0.1 22.8
2017-Nov-01 19:00N 29°47' W 141°39'1 0.5 23.0
2017-Nov-01 18:00N 29°47' W 141°40'0 0.0 22.6
2017-Nov-01 17:00N 29°47' W 141°40'1 0.6 22.5
2017-Nov-01 16:00N 29°46' W 141°40'1 0.8 22.5
2017-Nov-01 15:00N 29°46' W 141°40'0 0.0 22.5
2017-Nov-01 14:00N 29°46' W 141°40'0 0.0 22.5
2017-Nov-01 12:00N 29°46' W 141°40'1 0.3 22.5
2017-Nov-01 08:00N 29°44' W 141°41'0 0.0 22.5
2017-Nov-01 07:00N 29°44' W 141°41'0 0.0 22.5
2017-Nov-01 06:00N 29°44' W 141°41'1 0.8 22.5
2017-Nov-01 05:00N 29°44' W 141°41'0 0.0 22.5
2017-Nov-01 04:00N 29°44' W 141°41'1 0.8 22.5
2017-Nov-01 03:00N 29°44' W 141°42'0 0.0 22.5
2017-Nov-01 02:00N 29°44' W 141°42'0 0.0 22.5
2017-Nov-01 00:00N 29°44' W 141°42'0 0.0 22.6
2017-Oct-31 23:00N 29°44' W 141°42'3 1.0 22.6
2017-Oct-31 20:00N 29°43' W 141°45'0 0.0 22.4
2017-Oct-31 18:00N 29°43' W 141°45'1 1.3 22.6
2017-Oct-31 17:00N 29°42' W 141°46'1 0.5 22.6
2017-Oct-31 16:00N 29°42' W 141°45'0 0.0 22.6
2017-Oct-31 15:00N 29°42' W 141°45'1 0.8 22.6
2017-Oct-31 14:00N 29°41' W 141°46'0 0.0 22.6
2017-Oct-31 13:00N 29°41' W 141°46'   22.6

Dump ship's entire track history